sensor_id;sensor_type;location;lat;lon;timestamp;temperature;humidity
37678;DHT22;23517;50.390;8.616;2022-11-03T00:01:56;5.60;83.40
37678;DHT22;23517;50.390;8.616;2022-11-03T00:04:23;5.60;84.00
37678;DHT22;23517;50.390;8.616;2022-11-03T00:06:52;5.60;84.00
37678;DHT22;23517;50.390;8.616;2022-11-03T00:09:21;5.70;83.60
37678;DHT22;23517;50.390;8.616;2022-11-03T00:11:49;5.70;82.30
37678;DHT22;23517;50.390;8.616;2022-11-03T00:14:17;5.70;82.80
37678;DHT22;23517;50.390;8.616;2022-11-03T00:16:44;5.70;83.20
37678;DHT22;23517;50.390;8.616;2022-11-03T00:19:11;5.70;83.30
37678;DHT22;23517;50.390;8.616;2022-11-03T00:21:41;5.60;83.70
37678;DHT22;23517;50.390;8.616;2022-11-03T00:24:08;5.60;82.40
37678;DHT22;23517;50.390;8.616;2022-11-03T00:26:35;5.60;82.30
37678;DHT22;23517;50.390;8.616;2022-11-03T00:29:08;5.60;82.50
37678;DHT22;23517;50.390;8.616;2022-11-03T00:31:37;5.50;83.10
37678;DHT22;23517;50.390;8.616;2022-11-03T00:34:05;5.50;84.00
37678;DHT22;23517;50.390;8.616;2022-11-03T00:36:35;5.60;84.20
37678;DHT22;23517;50.390;8.616;2022-11-03T00:39:04;5.60;84.00
37678;DHT22;23517;50.390;8.616;2022-11-03T00:41:31;5.70;84.30
37678;DHT22;23517;50.390;8.616;2022-11-03T00:43:58;5.70;83.80
37678;DHT22;23517;50.390;8.616;2022-11-03T00:46:26;5.80;84.80
37678;DHT22;23517;50.390;8.616;2022-11-03T00:48:53;5.80;85.00
37678;DHT22;23517;50.390;8.616;2022-11-03T00:51:27;5.90;85.70
37678;DHT22;23517;50.390;8.616;2022-11-03T00:53:58;5.90;86.20
37678;DHT22;23517;50.390;8.616;2022-11-03T00:56:31;5.90;86.00
37678;DHT22;23517;50.390;8.616;2022-11-03T00:59:01;5.80;86.00
37678;DHT22;23517;50.390;8.616;2022-11-03T01:01:32;5.90;84.70
37678;DHT22;23517;50.390;8.616;2022-11-03T01:04:08;5.80;83.80
37678;DHT22;23517;50.390;8.616;2022-11-03T01:06:56;5.80;84.40
37678;DHT22;23517;50.390;8.616;2022-11-03T01:09:38;5.80;84.80
37678;DHT22;23517;50.390;8.616;2022-11-03T01:12:10;5.80;85.60
37678;DHT22;23517;50.390;8.616;2022-11-03T01:17:11;5.70;85.60
37678;DHT22;23517;50.390;8.616;2022-11-03T01:19:55;5.70;85.30
37678;DHT22;23517;50.390;8.616;2022-11-03T01:22:23;5.70;86.50
37678;DHT22;23517;50.390;8.616;2022-11-03T01:24:50;5.70;86.30
37678;DHT22;23517;50.390;8.616;2022-11-03T01:31:08;5.70;85.80
37678;DHT22;23517;50.390;8.616;2022-11-03T01:33:37;5.80;85.30
37678;DHT22;23517;50.390;8.616;2022-11-03T01:36:04;5.70;85.40
37678;DHT22;23517;50.390;8.616;2022-11-03T01:38:33;5.80;85.20
37678;DHT22;23517;50.390;8.616;2022-11-03T01:41:02;5.80;84.20
37678;DHT22;23517;50.390;8.616;2022-11-03T01:43:31;5.70;84.70
37678;DHT22;23517;50.390;8.616;2022-11-03T01:46:21;5.70;85.80
37678;DHT22;23517;50.390;8.616;2022-11-03T01:49:01;5.70;86.10
37678;DHT22;23517;50.390;8.616;2022-11-03T01:51:33;5.70;86.20
37678;DHT22;23517;50.390;8.616;2022-11-03T01:54:08;5.70;86.30
37678;DHT22;23517;50.390;8.616;2022-11-03T01:56:41;5.70;86.60
37678;DHT22;23517;50.390;8.616;2022-11-03T01:59:16;5.70;86.70
37678;DHT22;23517;50.390;8.616;2022-11-03T02:01:44;5.60;87.10
37678;DHT22;23517;50.390;8.616;2022-11-03T02:04:32;5.60;85.20
37678;DHT22;23517;50.390;8.616;2022-11-03T02:10:47;5.60;85.70
37678;DHT22;23517;50.390;8.616;2022-11-03T02:13:23;5.60;85.90
37678;DHT22;23517;50.390;8.616;2022-11-03T02:15:56;5.50;85.00
37678;DHT22;23517;50.390;8.616;2022-11-03T02:18:28;5.50;85.40
37678;DHT22;23517;50.390;8.616;2022-11-03T02:21:25;5.50;86.10
37678;DHT22;23517;50.390;8.616;2022-11-03T02:24:12;5.50;86.00
37678;DHT22;23517;50.390;8.616;2022-11-03T02:26:47;5.50;85.00
37678;DHT22;23517;50.390;8.616;2022-11-03T02:29:16;5.50;85.90
37678;DHT22;23517;50.390;8.616;2022-11-03T02:31:54;5.50;85.80
37678;DHT22;23517;50.390;8.616;2022-11-03T02:34:48;5.50;84.50
37678;DHT22;23517;50.390;8.616;2022-11-03T02:37:26;5.40;84.50
37678;DHT22;23517;50.390;8.616;2022-11-03T02:40:03;5.40;85.20
37678;DHT22;23517;50.390;8.616;2022-11-03T02:42:34;5.40;85.00
37678;DHT22;23517;50.390;8.616;2022-11-03T02:45:05;5.40;85.40
37678;DHT22;23517;50.390;8.616;2022-11-03T02:47:42;5.40;85.70
37678;DHT22;23517;50.390;8.616;2022-11-03T02:50:09;5.50;85.60
37678;DHT22;23517;50.390;8.616;2022-11-03T02:52:42;5.40;86.00
37678;DHT22;23517;50.390;8.616;2022-11-03T02:55:31;5.50;86.30
37678;DHT22;23517;50.390;8.616;2022-11-03T03:01:23;5.50;85.80
37678;DHT22;23517;50.390;8.616;2022-11-03T03:04:01;5.50;85.80
37678;DHT22;23517;50.390;8.616;2022-11-03T03:06:35;5.50;86.60
37678;DHT22;23517;50.390;8.616;2022-11-03T03:09:13;5.40;86.20
37678;DHT22;23517;50.390;8.616;2022-11-03T03:11:46;5.40;86.30
37678;DHT22;23517;50.390;8.616;2022-11-03T03:14:20;5.40;86.50
37678;DHT22;23517;50.390;8.616;2022-11-03T03:19:49;5.40;86.70
37678;DHT22;23517;50.390;8.616;2022-11-03T03:22:48;5.40;86.60
37678;DHT22;23517;50.390;8.616;2022-11-03T03:25:44;5.30;86.90
37678;DHT22;23517;50.390;8.616;2022-11-03T03:28:18;5.30;87.50
37678;DHT22;23517;50.390;8.616;2022-11-03T03:30:50;5.40;87.70
37678;DHT22;23517;50.390;8.616;2022-11-03T03:33:18;5.40;87.50
37678;DHT22;23517;50.390;8.616;2022-11-03T03:35:48;5.40;87.10
37678;DHT22;23517;50.390;8.616;2022-11-03T03:38:20;5.40;87.60
37678;DHT22;23517;50.390;8.616;2022-11-03T03:40:51;5.40;87.90
37678;DHT22;23517;50.390;8.616;2022-11-03T03:43:22;5.40;87.00
37678;DHT22;23517;50.390;8.616;2022-11-03T03:45:51;5.30;87.70
37678;DHT22;23517;50.390;8.616;2022-11-03T03:48:21;5.30;87.10
37678;DHT22;23517;50.390;8.616;2022-11-03T03:50:48;5.40;88.10
37678;DHT22;23517;50.390;8.616;2022-11-03T03:53:17;5.30;88.20
37678;DHT22;23517;50.390;8.616;2022-11-03T03:55:48;5.40;88.50
37678;DHT22;23517;50.390;8.616;2022-11-03T03:58:17;5.40;88.40
37678;DHT22;23517;50.390;8.616;2022-11-03T04:00:43;5.40;88.90
37678;DHT22;23517;50.390;8.616;2022-11-03T04:03:20;5.40;89.20
37678;DHT22;23517;50.390;8.616;2022-11-03T04:05:48;5.40;89.60
37678;DHT22;23517;50.390;8.616;2022-11-03T04:08:15;5.40;89.60
37678;DHT22;23517;50.390;8.616;2022-11-03T04:10:44;5.40;89.40
37678;DHT22;23517;50.390;8.616;2022-11-03T04:13:29;5.40;89.20
37678;DHT22;23517;50.390;8.616;2022-11-03T04:16:15;5.40;88.40
37678;DHT22;23517;50.390;8.616;2022-11-03T04:19:14;5.40;87.90
37678;DHT22;23517;50.390;8.616;2022-11-03T04:21:59;5.30;87.90
37678;DHT22;23517;50.390;8.616;2022-11-03T04:24:49;5.30;87.60
37678;DHT22;23517;50.390;8.616;2022-11-03T04:32:35;5.30;85.90
37678;DHT22;23517;50.390;8.616;2022-11-03T04:35:23;5.30;85.90
37678;DHT22;23517;50.390;8.616;2022-11-03T04:37:57;5.30;86.40
37678;DHT22;23517;50.390;8.616;2022-11-03T04:40:26;5.20;86.30
37678;DHT22;23517;50.390;8.616;2022-11-03T04:42:53;5.20;86.40
37678;DHT22;23517;50.390;8.616;2022-11-03T04:45:30;5.20;86.20
37678;DHT22;23517;50.390;8.616;2022-11-03T04:48:00;5.20;86.50
37678;DHT22;23517;50.390;8.616;2022-11-03T04:50:27;5.20;86.40
37678;DHT22;23517;50.390;8.616;2022-11-03T04:52:56;5.10;86.00
37678;DHT22;23517;50.390;8.616;2022-11-03T04:55:25;5.10;87.20
37678;DHT22;23517;50.390;8.616;2022-11-03T04:57:56;5.00;87.90
37678;DHT22;23517;50.390;8.616;2022-11-03T05:00:24;5.00;88.70
37678;DHT22;23517;50.390;8.616;2022-11-03T05:02:51;5.10;88.40
37678;DHT22;23517;50.390;8.616;2022-11-03T05:05:23;5.10;88.40
37678;DHT22;23517;50.390;8.616;2022-11-03T05:07:53;5.00;88.00
37678;DHT22;23517;50.390;8.616;2022-11-03T05:10:24;5.00;88.00
37678;DHT22;23517;50.390;8.616;2022-11-03T05:12:53;5.00;87.90
37678;DHT22;23517;50.390;8.616;2022-11-03T05:15:35;5.00;87.80
37678;DHT22;23517;50.390;8.616;2022-11-03T05:18:23;5.00;87.80
37678;DHT22;23517;50.390;8.616;2022-11-03T05:20:55;5.00;86.40
37678;DHT22;23517;50.390;8.616;2022-11-03T05:23:24;4.90;85.40
37678;DHT22;23517;50.390;8.616;2022-11-03T05:25:56;4.90;86.00
37678;DHT22;23517;50.390;8.616;2022-11-03T05:28:29;4.90;86.90
37678;DHT22;23517;50.390;8.616;2022-11-03T05:30:58;4.90;86.90
37678;DHT22;23517;50.390;8.616;2022-11-03T05:33:35;4.90;87.10
37678;DHT22;23517;50.390;8.616;2022-11-03T05:36:12;4.90;87.10
37678;DHT22;23517;50.390;8.616;2022-11-03T05:38:40;4.90;87.10
37678;DHT22;23517;50.390;8.616;2022-11-03T05:41:21;4.90;85.90
37678;DHT22;23517;50.390;8.616;2022-11-03T05:44:11;4.80;85.50
37678;DHT22;23517;50.390;8.616;2022-11-03T05:46:48;4.80;86.50
37678;DHT22;23517;50.390;8.616;2022-11-03T05:49:15;4.80;86.80
37678;DHT22;23517;50.390;8.616;2022-11-03T05:51:43;4.90;87.00
37678;DHT22;23517;50.390;8.616;2022-11-03T05:54:22;4.90;86.60
37678;DHT22;23517;50.390;8.616;2022-11-03T05:56:50;4.80;86.50
37678;DHT22;23517;50.390;8.616;2022-11-03T05:59:19;4.80;86.50
37678;DHT22;23517;50.390;8.616;2022-11-03T06:01:50;4.80;86.00
37678;DHT22;23517;50.390;8.616;2022-11-03T06:04:31;4.80;86.60
37678;DHT22;23517;50.390;8.616;2022-11-03T06:07:02;4.80;86.70
37678;DHT22;23517;50.390;8.616;2022-11-03T06:09:41;4.80;87.20
37678;DHT22;23517;50.390;8.616;2022-11-03T06:12:11;4.80;87.20
37678;DHT22;23517;50.390;8.616;2022-11-03T06:14:42;4.80;87.00
37678;DHT22;23517;50.390;8.616;2022-11-03T06:17:14;4.80;87.10
37678;DHT22;23517;50.390;8.616;2022-11-03T06:19:49;4.90;87.70
37678;DHT22;23517;50.390;8.616;2022-11-03T06:22:25;4.90;87.50
37678;DHT22;23517;50.390;8.616;2022-11-03T06:24:57;4.80;87.00
37678;DHT22;23517;50.390;8.616;2022-11-03T06:27:28;4.80;87.30
37678;DHT22;23517;50.390;8.616;2022-11-03T06:30:02;4.90;87.30
37678;DHT22;23517;50.390;8.616;2022-11-03T06:32:45;4.90;87.40
37678;DHT22;23517;50.390;8.616;2022-11-03T06:35:12;4.90;87.70
37678;DHT22;23517;50.390;8.616;2022-11-03T06:37:40;4.90;88.20
37678;DHT22;23517;50.390;8.616;2022-11-03T06:42:40;5.00;87.10
37678;DHT22;23517;50.390;8.616;2022-11-03T06:45:19;5.00;86.50
37678;DHT22;23517;50.390;8.616;2022-11-03T06:47:47;5.10;86.30
37678;DHT22;23517;50.390;8.616;2022-11-03T06:50:31;5.10;86.70
37678;DHT22;23517;50.390;8.616;2022-11-03T06:52:59;5.10;87.50
37678;DHT22;23517;50.390;8.616;2022-11-03T06:55:33;5.10;87.30
37678;DHT22;23517;50.390;8.616;2022-11-03T06:58:10;5.20;87.50
37678;DHT22;23517;50.390;8.616;2022-11-03T07:00:58;5.30;87.70
37678;DHT22;23517;50.390;8.616;2022-11-03T07:03:31;5.30;86.70
37678;DHT22;23517;50.390;8.616;2022-11-03T07:08:47;5.40;85.80
37678;DHT22;23517;50.390;8.616;2022-11-03T07:11:19;5.50;86.20
37678;DHT22;23517;50.390;8.616;2022-11-03T07:13:51;5.60;86.50
37678;DHT22;23517;50.390;8.616;2022-11-03T07:17:01;5.70;85.90
37678;DHT22;23517;50.390;8.616;2022-11-03T07:19:40;5.70;83.70
37678;DHT22;23517;50.390;8.616;2022-11-03T07:22:20;5.80;83.80
37678;DHT22;23517;50.390;8.616;2022-11-03T07:24:52;5.80;82.50
37678;DHT22;23517;50.390;8.616;2022-11-03T07:27:26;5.90;83.20
37678;DHT22;23517;50.390;8.616;2022-11-03T07:30:10;5.90;83.60
37678;DHT22;23517;50.390;8.616;2022-11-03T07:32:42;6.00;82.10
37678;DHT22;23517;50.390;8.616;2022-11-03T07:35:28;6.00;82.20
37678;DHT22;23517;50.390;8.616;2022-11-03T07:38:21;6.00;81.00
37678;DHT22;23517;50.390;8.616;2022-11-03T07:40:50;6.10;81.60
37678;DHT22;23517;50.390;8.616;2022-11-03T07:43:21;6.10;82.30
37678;DHT22;23517;50.390;8.616;2022-11-03T07:45:51;6.30;82.50
37678;DHT22;23517;50.390;8.616;2022-11-03T07:48:43;6.30;81.60
37678;DHT22;23517;50.390;8.616;2022-11-03T07:51:22;6.40;82.20
37678;DHT22;23517;50.390;8.616;2022-11-03T07:56:38;6.60;83.20
37678;DHT22;23517;50.390;8.616;2022-11-03T07:59:17;6.60;84.10
37678;DHT22;23517;50.390;8.616;2022-11-03T08:01:50;6.80;84.40
37678;DHT22;23517;50.390;8.616;2022-11-03T08:04:28;7.00;84.50
37678;DHT22;23517;50.390;8.616;2022-11-03T08:06:56;7.20;85.00
37678;DHT22;23517;50.390;8.616;2022-11-03T08:09:22;7.40;83.90
37678;DHT22;23517;50.390;8.616;2022-11-03T08:11:49;7.50;84.00
37678;DHT22;23517;50.390;8.616;2022-11-03T08:14:16;7.70;84.30
37678;DHT22;23517;50.390;8.616;2022-11-03T08:16:43;7.90;84.40
37678;DHT22;23517;50.390;8.616;2022-11-03T08:19:10;8.20;82.30
37678;DHT22;23517;50.390;8.616;2022-11-03T08:21:37;8.50;81.00
37678;DHT22;23517;50.390;8.616;2022-11-03T08:24:04;8.80;77.10
37678;DHT22;23517;50.390;8.616;2022-11-03T08:26:31;9.10;75.70
37678;DHT22;23517;50.390;8.616;2022-11-03T08:28:57;9.20;73.60
37678;DHT22;23517;50.390;8.616;2022-11-03T08:31:24;9.40;72.20
37678;DHT22;23517;50.390;8.616;2022-11-03T08:33:51;9.40;73.50
37678;DHT22;23517;50.390;8.616;2022-11-03T08:36:17;9.60;72.70
37678;DHT22;23517;50.390;8.616;2022-11-03T08:38:46;9.70;71.20
37678;DHT22;23517;50.390;8.616;2022-11-03T08:41:12;9.70;71.00
37678;DHT22;23517;50.390;8.616;2022-11-03T08:43:39;9.80;71.50
37678;DHT22;23517;50.390;8.616;2022-11-03T08:46:05;9.90;71.80
37678;DHT22;23517;50.390;8.616;2022-11-03T08:48:44;10.00;71.10
37678;DHT22;23517;50.390;8.616;2022-11-03T08:51:11;10.10;70.70
37678;DHT22;23517;50.390;8.616;2022-11-03T08:53:42;10.10;70.10
37678;DHT22;23517;50.390;8.616;2022-11-03T08:56:09;10.10;69.00
37678;DHT22;23517;50.390;8.616;2022-11-03T08:58:41;10.10;69.20
37678;DHT22;23517;50.390;8.616;2022-11-03T09:01:09;10.00;70.60
37678;DHT22;23517;50.390;8.616;2022-11-03T09:03:35;9.90;70.30
37678;DHT22;23517;50.390;8.616;2022-11-03T09:06:02;9.90;70.70
37678;DHT22;23517;50.390;8.616;2022-11-03T09:08:29;9.90;71.80
37678;DHT22;23517;50.390;8.616;2022-11-03T09:11:15;10.00;71.40
37678;DHT22;23517;50.390;8.616;2022-11-03T09:13:42;10.10;70.60
37678;DHT22;23517;50.390;8.616;2022-11-03T09:16:09;10.20;68.70
37678;DHT22;23517;50.390;8.616;2022-11-03T09:18:35;10.30;69.00
37678;DHT22;23517;50.390;8.616;2022-11-03T09:21:03;10.30;68.20
37678;DHT22;23517;50.390;8.616;2022-11-03T09:23:30;10.30;67.20
37678;DHT22;23517;50.390;8.616;2022-11-03T09:25:57;10.40;67.60
37678;DHT22;23517;50.390;8.616;2022-11-03T09:28:23;10.40;66.80
37678;DHT22;23517;50.390;8.616;2022-11-03T09:30:50;10.30;67.30
37678;DHT22;23517;50.390;8.616;2022-11-03T09:33:16;10.30;67.90
37678;DHT22;23517;50.390;8.616;2022-11-03T09:35:43;10.30;68.90
37678;DHT22;23517;50.390;8.616;2022-11-03T09:38:10;10.30;69.40
37678;DHT22;23517;50.390;8.616;2022-11-03T09:40:36;10.40;68.90
37678;DHT22;23517;50.390;8.616;2022-11-03T09:43:03;10.40;69.70
37678;DHT22;23517;50.390;8.616;2022-11-03T09:45:30;10.50;68.70
37678;DHT22;23517;50.390;8.616;2022-11-03T09:47:57;10.70;67.40
37678;DHT22;23517;50.390;8.616;2022-11-03T09:50:24;10.80;66.50
37678;DHT22;23517;50.390;8.616;2022-11-03T09:52:51;11.00;66.10
37678;DHT22;23517;50.390;8.616;2022-11-03T09:55:26;11.20;64.60
37678;DHT22;23517;50.390;8.616;2022-11-03T09:58:13;11.40;63.60
37678;DHT22;23517;50.390;8.616;2022-11-03T10:00:42;11.50;63.30
37678;DHT22;23517;50.390;8.616;2022-11-03T10:03:11;11.60;63.20
37678;DHT22;23517;50.390;8.616;2022-11-03T10:05:39;11.80;63.40
37678;DHT22;23517;50.390;8.616;2022-11-03T10:08:22;11.90;61.30
37678;DHT22;23517;50.390;8.616;2022-11-03T10:10:51;11.70;63.00
37678;DHT22;23517;50.390;8.616;2022-11-03T10:13:24;11.90;62.00
37678;DHT22;23517;50.390;8.616;2022-11-03T10:16:02;12.00;62.00
37678;DHT22;23517;50.390;8.616;2022-11-03T10:18:31;12.00;60.50
37678;DHT22;23517;50.390;8.616;2022-11-03T10:21:04;12.10;59.30
37678;DHT22;23517;50.390;8.616;2022-11-03T10:23:32;12.00;58.90
37678;DHT22;23517;50.390;8.616;2022-11-03T10:26:10;12.10;58.20
37678;DHT22;23517;50.390;8.616;2022-11-03T10:28:39;12.00;58.90
37678;DHT22;23517;50.390;8.616;2022-11-03T10:31:32;11.90;59.50
37678;DHT22;23517;50.390;8.616;2022-11-03T10:33:59;11.70;60.50
37678;DHT22;23517;50.390;8.616;2022-11-03T10:36:28;11.80;60.70
37678;DHT22;23517;50.390;8.616;2022-11-03T10:38:57;11.70;60.60
37678;DHT22;23517;50.390;8.616;2022-11-03T10:41:28;11.70;61.30
37678;DHT22;23517;50.390;8.616;2022-11-03T10:46:38;11.80;63.30
37678;DHT22;23517;50.390;8.616;2022-11-03T10:49:21;11.70;63.50
37678;DHT22;23517;50.390;8.616;2022-11-03T10:51:52;11.70;64.00
37678;DHT22;23517;50.390;8.616;2022-11-03T10:54:23;11.70;64.50
37678;DHT22;23517;50.390;8.616;2022-11-03T10:56:51;11.70;64.60
37678;DHT22;23517;50.390;8.616;2022-11-03T10:59:19;11.70;63.70
37678;DHT22;23517;50.390;8.616;2022-11-03T11:01:47;11.70;63.50
37678;DHT22;23517;50.390;8.616;2022-11-03T11:04:18;11.60;64.10
37678;DHT22;23517;50.390;8.616;2022-11-03T11:06:46;11.50;65.10
37678;DHT22;23517;50.390;8.616;2022-11-03T11:09:22;11.60;64.70
37678;DHT22;23517;50.390;8.616;2022-11-03T11:12:17;11.70;63.40
37678;DHT22;23517;50.390;8.616;2022-11-03T11:14:55;11.60;63.30
37678;DHT22;23517;50.390;8.616;2022-11-03T11:17:43;11.60;64.20
37678;DHT22;23517;50.390;8.616;2022-11-03T11:22:45;11.70;63.40
37678;DHT22;23517;50.390;8.616;2022-11-03T11:25:12;11.60;63.20
37678;DHT22;23517;50.390;8.616;2022-11-03T11:30:54;11.70;62.40
37678;DHT22;23517;50.390;8.616;2022-11-03T11:32:57;11.80;58.40
37678;DHT22;23517;50.390;8.616;2022-11-03T11:38:57;12.10;56.70
37678;DHT22;23517;50.390;8.616;2022-11-03T11:41:17;12.10;57.90
37678;DHT22;23517;50.390;8.616;2022-11-03T11:43:46;12.20;57.40
37678;DHT22;23517;50.390;8.616;2022-11-03T11:46:34;12.40;55.30
37678;DHT22;23517;50.390;8.616;2022-11-03T11:49:23;12.40;54.90
37678;DHT22;23517;50.390;8.616;2022-11-03T11:51:50;12.40;55.40
37678;DHT22;23517;50.390;8.616;2022-11-03T11:54:19;12.40;54.80
37678;DHT22;23517;50.390;8.616;2022-11-03T11:56:47;12.50;55.10
37678;DHT22;23517;50.390;8.616;2022-11-03T11:59:20;12.40;56.70
37678;DHT22;23517;50.390;8.616;2022-11-03T12:01:53;12.40;56.10
37678;DHT22;23517;50.390;8.616;2022-11-03T12:04:26;12.30;57.50
37678;DHT22;23517;50.390;8.616;2022-11-03T12:06:56;12.30;57.20
37678;DHT22;23517;50.390;8.616;2022-11-03T12:09:27;12.30;56.40
37678;DHT22;23517;50.390;8.616;2022-11-03T12:11:58;12.30;55.80
37678;DHT22;23517;50.390;8.616;2022-11-03T12:14:35;12.20;56.50
37678;DHT22;23517;50.390;8.616;2022-11-03T12:19:44;12.30;56.00
37678;DHT22;23517;50.390;8.616;2022-11-03T12:24:59;12.10;56.50
37678;DHT22;23517;50.390;8.616;2022-11-03T12:30:01;12.00;57.30
37678;DHT22;23517;50.390;8.616;2022-11-03T12:32:31;12.00;57.60
37678;DHT22;23517;50.390;8.616;2022-11-03T12:35:02;11.80;58.20
37678;DHT22;23517;50.390;8.616;2022-11-03T12:37:29;11.90;58.80
37678;DHT22;23517;50.390;8.616;2022-11-03T12:39:56;11.90;58.40
37678;DHT22;23517;50.390;8.616;2022-11-03T12:42:23;11.90;58.60
37678;DHT22;23517;50.390;8.616;2022-11-03T12:44:51;12.00;58.70
37678;DHT22;23517;50.390;8.616;2022-11-03T12:47:18;12.00;58.60
37678;DHT22;23517;50.390;8.616;2022-11-03T12:49:45;12.00;58.60
37678;DHT22;23517;50.390;8.616;2022-11-03T12:52:12;12.00;58.80
37678;DHT22;23517;50.390;8.616;2022-11-03T12:54:39;12.00;58.90
37678;DHT22;23517;50.390;8.616;2022-11-03T12:57:07;12.00;58.80
37678;DHT22;23517;50.390;8.616;2022-11-03T12:59:34;11.90;59.50
37678;DHT22;23517;50.390;8.616;2022-11-03T13:02:00;11.90;59.80
37678;DHT22;23517;50.390;8.616;2022-11-03T13:04:27;11.90;60.10
37678;DHT22;23517;50.390;8.616;2022-11-03T13:06:54;11.90;60.20
37678;DHT22;23517;50.390;8.616;2022-11-03T13:09:20;11.90;59.60
37678;DHT22;23517;50.390;8.616;2022-11-03T13:11:47;12.00;59.20
37678;DHT22;23517;50.390;8.616;2022-11-03T13:14:32;12.00;59.50
37678;DHT22;23517;50.390;8.616;2022-11-03T13:16:59;12.00;59.30
37678;DHT22;23517;50.390;8.616;2022-11-03T13:19:26;12.00;60.10
37678;DHT22;23517;50.390;8.616;2022-11-03T13:21:53;12.00;59.80
37678;DHT22;23517;50.390;8.616;2022-11-03T13:24:19;12.00;60.20
37678;DHT22;23517;50.390;8.616;2022-11-03T13:26:46;11.90;59.70
37678;DHT22;23517;50.390;8.616;2022-11-03T13:29:13;11.90;60.30
37678;DHT22;23517;50.390;8.616;2022-11-03T13:31:39;11.90;60.30
37678;DHT22;23517;50.390;8.616;2022-11-03T13:34:06;11.90;60.80
37678;DHT22;23517;50.390;8.616;2022-11-03T13:36:32;11.90;60.50
37678;DHT22;23517;50.390;8.616;2022-11-03T13:38:59;11.80;61.10
37678;DHT22;23517;50.390;8.616;2022-11-03T13:41:26;11.80;61.10
37678;DHT22;23517;50.390;8.616;2022-11-03T13:43:52;11.80;61.70
37678;DHT22;23517;50.390;8.616;2022-11-03T13:46:19;11.80;61.70
37678;DHT22;23517;50.390;8.616;2022-11-03T13:48:46;11.80;61.40
37678;DHT22;23517;50.390;8.616;2022-11-03T13:51:32;11.80;61.60
37678;DHT22;23517;50.390;8.616;2022-11-03T13:53:59;11.80;61.80
37678;DHT22;23517;50.390;8.616;2022-11-03T13:56:46;11.70;62.20
37678;DHT22;23517;50.390;8.616;2022-11-03T13:59:32;11.80;62.20
37678;DHT22;23517;50.390;8.616;2022-11-03T14:02:03;11.80;61.90
37678;DHT22;23517;50.390;8.616;2022-11-03T14:04:51;11.70;62.00
37678;DHT22;23517;50.390;8.616;2022-11-03T14:07:17;11.70;62.60
37678;DHT22;23517;50.390;8.616;2022-11-03T14:09:45;11.70;63.20
37678;DHT22;23517;50.390;8.616;2022-11-03T14:12:11;11.60;63.70
37678;DHT22;23517;50.390;8.616;2022-11-03T14:14:58;11.60;63.80
37678;DHT22;23517;50.390;8.616;2022-11-03T14:17:25;11.60;64.40
37678;DHT22;23517;50.390;8.616;2022-11-03T14:19:52;11.50;64.30
37678;DHT22;23517;50.390;8.616;2022-11-03T14:22:24;11.50;64.90
37678;DHT22;23517;50.390;8.616;2022-11-03T14:24:51;11.50;64.90
37678;DHT22;23517;50.390;8.616;2022-11-03T14:27:18;11.50;65.30
37678;DHT22;23517;50.390;8.616;2022-11-03T14:29:46;11.40;65.70
37678;DHT22;23517;50.390;8.616;2022-11-03T14:32:17;11.40;65.90
37678;DHT22;23517;50.390;8.616;2022-11-03T14:34:44;11.30;66.40
37678;DHT22;23517;50.390;8.616;2022-11-03T14:37:12;11.30;66.80
37678;DHT22;23517;50.390;8.616;2022-11-03T14:39:39;11.20;67.80
37678;DHT22;23517;50.390;8.616;2022-11-03T14:42:11;11.20;67.70
37678;DHT22;23517;50.390;8.616;2022-11-03T14:44:43;11.20;68.00
37678;DHT22;23517;50.390;8.616;2022-11-03T14:47:13;11.20;68.80
37678;DHT22;23517;50.390;8.616;2022-11-03T14:49:44;11.10;69.90
37678;DHT22;23517;50.390;8.616;2022-11-03T14:52:12;11.00;71.30
37678;DHT22;23517;50.390;8.616;2022-11-03T14:54:39;11.00;71.70
37678;DHT22;23517;50.390;8.616;2022-11-03T14:57:07;11.00;72.10
37678;DHT22;23517;50.390;8.616;2022-11-03T14:59:35;11.00;72.70
37678;DHT22;23517;50.390;8.616;2022-11-03T15:02:02;11.00;72.30
37678;DHT22;23517;50.390;8.616;2022-11-03T15:04:30;11.00;72.50
37678;DHT22;23517;50.390;8.616;2022-11-03T15:06:57;10.90;73.30
37678;DHT22;23517;50.390;8.616;2022-11-03T15:09:24;10.90;73.20
37678;DHT22;23517;50.390;8.616;2022-11-03T15:11:50;10.90;74.40
37678;DHT22;23517;50.390;8.616;2022-11-03T15:14:17;10.80;73.70
37678;DHT22;23517;50.390;8.616;2022-11-03T15:16:44;10.80;74.00
37678;DHT22;23517;50.390;8.616;2022-11-03T15:19:11;10.80;74.50
37678;DHT22;23517;50.390;8.616;2022-11-03T15:21:38;10.80;74.20
37678;DHT22;23517;50.390;8.616;2022-11-03T15:24:05;10.90;73.80
37678;DHT22;23517;50.390;8.616;2022-11-03T15:26:52;10.80;73.80
37678;DHT22;23517;50.390;8.616;2022-11-03T15:29:18;10.80;73.40
37678;DHT22;23517;50.390;8.616;2022-11-03T15:31:45;10.80;73.40
37678;DHT22;23517;50.390;8.616;2022-11-03T15:34:15;10.80;73.50
37678;DHT22;23517;50.390;8.616;2022-11-03T15:36:42;10.70;74.00
37678;DHT22;23517;50.390;8.616;2022-11-03T15:39:08;10.70;74.90
37678;DHT22;23517;50.390;8.616;2022-11-03T15:41:35;10.70;74.70
37678;DHT22;23517;50.390;8.616;2022-11-03T15:44:02;10.80;73.80
37678;DHT22;23517;50.390;8.616;2022-11-03T15:46:28;10.90;72.80
37678;DHT22;23517;50.390;8.616;2022-11-03T15:48:55;10.90;71.70
37678;DHT22;23517;50.390;8.616;2022-11-03T15:51:22;11.00;70.00
37678;DHT22;23517;50.390;8.616;2022-11-03T15:53:49;11.00;70.90
37678;DHT22;23517;50.390;8.616;2022-11-03T15:56:24;11.00;70.80
37678;DHT22;23517;50.390;8.616;2022-11-03T15:58:51;11.00;71.20
37678;DHT22;23517;50.390;8.616;2022-11-03T16:01:18;11.00;70.70
37678;DHT22;23517;50.390;8.616;2022-11-03T16:03:45;11.00;70.50
37678;DHT22;23517;50.390;8.616;2022-11-03T16:06:11;11.00;70.90
37678;DHT22;23517;50.390;8.616;2022-11-03T16:08:38;10.90;71.20
37678;DHT22;23517;50.390;8.616;2022-11-03T16:11:05;10.90;71.50
37678;DHT22;23517;50.390;8.616;2022-11-03T16:13:31;10.80;71.90
37678;DHT22;23517;50.390;8.616;2022-11-03T16:15:58;10.70;72.90
37678;DHT22;23517;50.390;8.616;2022-11-03T16:18:25;10.70;74.00
37678;DHT22;23517;50.390;8.616;2022-11-03T16:20:51;10.60;74.80
37678;DHT22;23517;50.390;8.616;2022-11-03T16:23:18;10.60;75.60
37678;DHT22;23517;50.390;8.616;2022-11-03T16:25:45;10.60;76.20
37678;DHT22;23517;50.390;8.616;2022-11-03T16:28:11;10.60;76.50
37678;DHT22;23517;50.390;8.616;2022-11-03T16:30:38;10.50;76.80
37678;DHT22;23517;50.390;8.616;2022-11-03T16:33:05;10.50;77.60
37678;DHT22;23517;50.390;8.616;2022-11-03T16:35:33;10.50;78.30
37678;DHT22;23517;50.390;8.616;2022-11-03T16:37:59;10.50;79.00
37678;DHT22;23517;50.390;8.616;2022-11-03T16:40:26;10.40;79.90
37678;DHT22;23517;50.390;8.616;2022-11-03T16:42:53;10.40;80.00
37678;DHT22;23517;50.390;8.616;2022-11-03T16:45:22;10.40;81.40
37678;DHT22;23517;50.390;8.616;2022-11-03T16:47:51;10.40;81.60
37678;DHT22;23517;50.390;8.616;2022-11-03T16:50:18;10.40;83.40
37678;DHT22;23517;50.390;8.616;2022-11-03T16:52:46;10.40;84.60
37678;DHT22;23517;50.390;8.616;2022-11-03T16:55:15;10.30;84.70